sensor_id;sensor_type;location;lat;lon;timestamp;pressure;altitude;pressure_sealevel;temperature;humidity
66430;BME280;53242;51.694;10.006;2023-05-12T00:00:11;99584.72;;;13.31;91.55
66430;BME280;53242;51.694;10.006;2023-05-12T00:02:34;99587.59;;;13.43;91.27
66430;BME280;53242;51.694;10.006;2023-05-12T00:04:57;99578.63;;;13.38;91.04
66430;BME280;53242;51.694;10.006;2023-05-12T00:07:19;99581.28;;;13.38;91.27
66430;BME280;53242;51.694;10.006;2023-05-12T00:09:42;99584.94;;;13.43;90.86
66430;BME280;53242;51.694;10.006;2023-05-12T00:12:04;99582.91;;;13.32;90.96
66430;BME280;53242;51.694;10.006;2023-05-12T00:14:27;99581.69;;;13.35;90.99
66430;BME280;53242;51.694;10.006;2023-05-12T00:16:49;99584.16;;;13.29;90.77
66430;BME280;53242;51.694;10.006;2023-05-12T00:19:13;99586.16;;;13.34;90.91
66430;BME280;53242;51.694;10.006;2023-05-12T00:21:35;99586.75;;;13.36;90.64
66430;BME280;53242;51.694;10.006;2023-05-12T00:23:58;99592.50;;;13.33;90.61
66430;BME280;53242;51.694;10.006;2023-05-12T00:26:20;99587.03;;;13.14;91.26
66430;BME280;53242;51.694;10.006;2023-05-12T00:28:43;99588.06;;;13.13;90.93
66430;BME280;53242;51.694;10.006;2023-05-12T00:31:05;99584.59;;;13.13;91.19
66430;BME280;53242;51.694;10.006;2023-05-12T00:33:28;99584.81;;;13.11;90.98
66430;BME280;53242;51.694;10.006;2023-05-12T00:35:51;99592.94;;;13.16;90.53
66430;BME280;53242;51.694;10.006;2023-05-12T00:38:13;99597.22;;;13.18;90.31
66430;BME280;53242;51.694;10.006;2023-05-12T00:40:36;99587.88;;;13.02;90.92
66430;BME280;53242;51.694;10.006;2023-05-12T00:42:58;99591.16;;;12.97;91.38
66430;BME280;53242;51.694;10.006;2023-05-12T00:45:20;99580.78;;;12.89;91.47
66430;BME280;53242;51.694;10.006;2023-05-12T00:47:44;99580.00;;;12.88;91.02
66430;BME280;53242;51.694;10.006;2023-05-12T00:50:07;99577.91;;;12.97;90.93
66430;BME280;53242;51.694;10.006;2023-05-12T00:52:33;99579.78;;;12.90;91.25
66430;BME280;53242;51.694;10.006;2023-05-12T00:54:57;99579.38;;;12.86;91.31
66430;BME280;53242;51.694;10.006;2023-05-12T00:57:20;99586.50;;;12.79;91.73
66430;BME280;53242;51.694;10.006;2023-05-12T00:59:43;99583.44;;;12.89;91.44
66430;BME280;53242;51.694;10.006;2023-05-12T01:02:06;99586.09;;;12.82;91.47
66430;BME280;53242;51.694;10.006;2023-05-12T01:04:29;99580.84;;;12.75;91.97
66430;BME280;53242;51.694;10.006;2023-05-12T01:06:55;99581.63;;;12.76;92.26
66430;BME280;53242;51.694;10.006;2023-05-12T01:09:19;99590.19;;;12.71;92.63
66430;BME280;53242;51.694;10.006;2023-05-12T01:11:42;99592.44;;;12.68;92.63
66430;BME280;53242;51.694;10.006;2023-05-12T01:14:04;99583.69;;;12.60;92.77
66430;BME280;53242;51.694;10.006;2023-05-12T01:16:31;99597.34;;;12.64;92.57
66430;BME280;53242;51.694;10.006;2023-05-12T01:18:57;99593.88;;;12.70;92.03
66430;BME280;53242;51.694;10.006;2023-05-12T01:21:20;99597.13;;;12.65;92.28
66430;BME280;53242;51.694;10.006;2023-05-12T01:23:47;99601.19;;;12.88;91.27
66430;BME280;53242;51.694;10.006;2023-05-12T01:26:10;99594.25;;;12.87;91.22
66430;BME280;53242;51.694;10.006;2023-05-12T01:28:34;99594.25;;;12.87;91.20
66430;BME280;53242;51.694;10.006;2023-05-12T01:30:58;99589.75;;;12.88;90.88
66430;BME280;53242;51.694;10.006;2023-05-12T01:33:20;99599.56;;;12.80;91.00
66430;BME280;53242;51.694;10.006;2023-05-12T01:35:42;99600.13;;;12.89;90.94
66430;BME280;53242;51.694;10.006;2023-05-12T01:38:05;99594.22;;;12.94;90.92
66430;BME280;53242;51.694;10.006;2023-05-12T01:40:32;99601.75;;;12.90;90.95
66430;BME280;53242;51.694;10.006;2023-05-12T01:42:55;99600.97;;;12.90;90.93
66430;BME280;53242;51.694;10.006;2023-05-12T01:45:17;99610.56;;;12.77;91.41
66430;BME280;53242;51.694;10.006;2023-05-12T01:47:40;99610.16;;;12.80;91.11
66430;BME280;53242;51.694;10.006;2023-05-12T01:50:04;99605.25;;;12.77;90.57
66430;BME280;53242;51.694;10.006;2023-05-12T01:52:27;99609.94;;;12.82;90.13
66430;BME280;53242;51.694;10.006;2023-05-12T01:54:50;99611.16;;;12.79;90.37
66430;BME280;53242;51.694;10.006;2023-05-12T01:57:13;99604.66;;;12.82;90.26
66430;BME280;53242;51.694;10.006;2023-05-12T01:59:35;99614.84;;;12.78;90.16
66430;BME280;53242;51.694;10.006;2023-05-12T02:02:00;99609.53;;;12.78;90.10
66430;BME280;53242;51.694;10.006;2023-05-12T02:04:26;99614.63;;;12.80;89.98
66430;BME280;53242;51.694;10.006;2023-05-12T02:06:50;99609.94;;;12.82;89.78
66430;BME280;53242;51.694;10.006;2023-05-12T02:09:13;99615.63;;;12.79;89.71
66430;BME280;53242;51.694;10.006;2023-05-12T02:11:35;99620.31;;;12.83;89.45
66430;BME280;53242;51.694;10.006;2023-05-12T02:13:58;99617.47;;;12.78;89.70
66430;BME280;53242;51.694;10.006;2023-05-12T02:16:22;99618.28;;;12.72;90.11
66430;BME280;53242;51.694;10.006;2023-05-12T02:18:44;99622.38;;;12.75;90.08
66430;BME280;53242;51.694;10.006;2023-05-12T02:21:07;99620.94;;;12.72;90.18
66430;BME280;53242;51.694;10.006;2023-05-12T02:23:29;99622.78;;;12.78;89.75
66430;BME280;53242;51.694;10.006;2023-05-12T02:25:52;99623.59;;;12.79;89.80
66430;BME280;53242;51.694;10.006;2023-05-12T02:28:14;99620.53;;;12.82;89.71
66430;BME280;53242;51.694;10.006;2023-05-12T02:30:37;99616.47;;;12.66;89.95
66430;BME280;53242;51.694;10.006;2023-05-12T02:33:01;99621.56;;;12.81;89.41
66430;BME280;53242;51.694;10.006;2023-05-12T02:35:23;99612.81;;;12.80;89.76
66430;BME280;53242;51.694;10.006;2023-05-12T02:37:46;99615.66;;;12.86;89.32
66430;BME280;53242;51.694;10.006;2023-05-12T02:40:09;99613.00;;;12.86;89.78
66430;BME280;53242;51.694;10.006;2023-05-12T02:42:32;99609.53;;;12.85;89.74
66430;BME280;53242;51.694;10.006;2023-05-12T02:44:56;99613.59;;;12.81;89.70
66430;BME280;53242;51.694;10.006;2023-05-12T02:47:19;99613.00;;;12.86;89.69
66430;BME280;53242;51.694;10.006;2023-05-12T02:49:41;99609.09;;;12.95;89.20
66430;BME280;53242;51.694;10.006;2023-05-12T02:52:04;99606.47;;;12.88;89.82
66430;BME280;53242;51.694;10.006;2023-05-12T02:54:27;99605.84;;;12.93;89.63
66430;BME280;53242;51.694;10.006;2023-05-12T02:56:49;99608.50;;;12.93;89.45
66430;BME280;53242;51.694;10.006;2023-05-12T02:59:11;99613.59;;;12.88;89.45
66430;BME280;53242;51.694;10.006;2023-05-12T03:01:34;99616.47;;;12.73;89.97
66430;BME280;53242;51.694;10.006;2023-05-12T03:03:56;99622.16;;;12.76;90.20
66430;BME280;53242;51.694;10.006;2023-05-12T03:06:19;99615.84;;;12.71;90.50
66430;BME280;53242;51.694;10.006;2023-05-12T03:08:41;99609.13;;;12.81;89.77
66430;BME280;53242;51.694;10.006;2023-05-12T03:11:04;99598.09;;;12.91;89.23
66430;BME280;53242;51.694;10.006;2023-05-12T03:13:26;99612.59;;;12.82;89.56
66430;BME280;53242;51.694;10.006;2023-05-12T03:15:49;99607.69;;;12.79;90.01
66430;BME280;53242;51.694;10.006;2023-05-12T03:18:11;99613.41;;;12.82;90.05
66430;BME280;53242;51.694;10.006;2023-05-12T03:20:34;99613.81;;;12.79;89.80
66430;BME280;53242;51.694;10.006;2023-05-12T03:22:56;99622.56;;;12.80;89.87
66430;BME280;53242;51.694;10.006;2023-05-12T03:25:19;99624.19;;;12.81;90.08
66430;BME280;53242;51.694;10.006;2023-05-12T03:27:41;99628.69;;;12.74;90.23
66430;BME280;53242;51.694;10.006;2023-05-12T03:30:05;99625.25;;;12.60;90.72
66430;BME280;53242;51.694;10.006;2023-05-12T03:32:31;99617.28;;;12.66;90.30
66430;BME280;53242;51.694;10.006;2023-05-12T03:34:53;99615.25;;;12.75;89.46
66430;BME280;53242;51.694;10.006;2023-05-12T03:37:16;99616.06;;;12.76;89.32
66430;BME280;53242;51.694;10.006;2023-05-12T03:39:40;99615.66;;;12.59;90.19
66430;BME280;53242;51.694;10.006;2023-05-12T03:42:03;99629.13;;;12.64;89.81
66430;BME280;53242;51.694;10.006;2023-05-12T03:44:25;99620.97;;;12.52;89.96
66430;BME280;53242;51.694;10.006;2023-05-12T03:46:47;99621.56;;;12.61;89.79
66430;BME280;53242;51.694;10.006;2023-05-12T03:49:10;99605.06;;;12.59;89.64
66430;BME280;53242;51.694;10.006;2023-05-12T03:51:33;99613.22;;;12.30;90.89
66430;BME280;53242;51.694;10.006;2023-05-12T03:53:55;99619.34;;;12.44;90.43
66430;BME280;53242;51.694;10.006;2023-05-12T03:56:17;99620.75;;;12.54;90.48
66430;BME280;53242;51.694;10.006;2023-05-12T03:58:40;99612.81;;;12.54;91.07
66430;BME280;53242;51.694;10.006;2023-05-12T04:01:02;99620.97;;;12.65;90.19
66430;BME280;53242;51.694;10.006;2023-05-12T04:03:25;99617.09;;;12.68;90.12
66430;BME280;53242;51.694;10.006;2023-05-12T04:05:47;99615.44;;;12.74;89.75
66430;BME280;53242;51.694;10.006;2023-05-12T04:08:10;99619.13;;;12.73;89.94
66430;BME280;53242;51.694;10.006;2023-05-12T04:10:37;99618.53;;;12.64;90.53
66430;BME280;53242;51.694;10.006;2023-05-12T04:13:00;99620.56;;;12.48;90.97
66430;BME280;53242;51.694;10.006;2023-05-12T04:15:22;99622.78;;;12.45;90.32
66430;BME280;53242;51.694;10.006;2023-05-12T04:17:45;99631.91;;;12.09;91.80
66430;BME280;53242;51.694;10.006;2023-05-12T04:20:08;99624.19;;;12.14;91.66
66430;BME280;53242;51.694;10.006;2023-05-12T04:22:30;99632.38;;;12.46;90.00
66430;BME280;53242;51.694;10.006;2023-05-12T04:24:53;99627.06;;;12.53;89.15
66430;BME280;53242;51.694;10.006;2023-05-12T04:27:16;99626.88;;;12.47;89.82
66430;BME280;53242;51.694;10.006;2023-05-12T04:29:38;99636.66;;;12.47;90.01
66430;BME280;53242;51.694;10.006;2023-05-12T04:32:01;99632.78;;;12.49;89.86
66430;BME280;53242;51.694;10.006;2023-05-12T04:34:23;99632.78;;;12.49;90.10
66430;BME280;53242;51.694;10.006;2023-05-12T04:36:46;99633.78;;;12.55;89.44
66430;BME280;53242;51.694;10.006;2023-05-12T04:39:09;99630.34;;;12.55;89.42
66430;BME280;53242;51.694;10.006;2023-05-12T04:41:31;99640.09;;;12.47;89.54
66430;BME280;53242;51.694;10.006;2023-05-12T04:43:54;99634.41;;;12.64;88.95
66430;BME280;53242;51.694;10.006;2023-05-12T04:46:16;99638.88;;;12.70;88.85
66430;BME280;53242;51.694;10.006;2023-05-12T04:48:39;99643.34;;;12.76;88.63
66430;BME280;53242;51.694;10.006;2023-05-12T04:51:03;99644.97;;;12.77;88.32
66430;BME280;53242;51.694;10.006;2023-05-12T04:53:26;99641.91;;;12.74;88.97
66430;BME280;53242;51.694;10.006;2023-05-12T04:55:48;99647.63;;;12.77;88.97
66430;BME280;53242;51.694;10.006;2023-05-12T04:58:12;99648.22;;;12.93;88.00
66430;BME280;53242;51.694;10.006;2023-05-12T05:00:35;99648.03;;;12.88;88.27
66430;BME280;53242;51.694;10.006;2023-05-12T05:02:57;99645.19;;;12.76;88.72
66430;BME280;53242;51.694;10.006;2023-05-12T05:05:22;99653.13;;;12.82;88.72
66430;BME280;53242;51.694;10.006;2023-05-12T05:07:45;99662.28;;;12.80;88.60
66430;BME280;53242;51.694;10.006;2023-05-12T05:10:08;99660.66;;;12.99;88.08
66430;BME280;53242;51.694;10.006;2023-05-12T05:12:31;99669.81;;;13.03;87.88
66430;BME280;53242;51.694;10.006;2023-05-12T05:14:53;99668.00;;;12.90;88.30
66430;BME280;53242;51.694;10.006;2023-05-12T05:17:15;99666.56;;;12.88;89.05
66430;BME280;53242;51.694;10.006;2023-05-12T05:19:38;99669.81;;;12.96;88.65
66430;BME280;53242;51.694;10.006;2023-05-12T05:22:01;99673.09;;;12.85;88.66
66430;BME280;53242;51.694;10.006;2023-05-12T05:24:23;99674.72;;;13.06;88.08
66430;BME280;53242;51.694;10.006;2023-05-12T05:26:45;99677.13;;;13.21;87.56
66430;BME280;53242;51.694;10.006;2023-05-12T05:29:08;99675.69;;;13.19;87.87
66430;BME280;53242;51.694;10.006;2023-05-12T05:31:31;99678.56;;;12.97;88.69
66430;BME280;53242;51.694;10.006;2023-05-12T05:33:54;99680.41;;;13.03;89.09
66430;BME280;53242;51.694;10.006;2023-05-12T05:36:17;99674.06;;;13.18;88.60
66430;BME280;53242;51.694;10.006;2023-05-12T05:38:40;99674.66;;;13.33;87.99
66430;BME280;53242;51.694;10.006;2023-05-12T05:41:02;99685.72;;;12.96;89.85
66430;BME280;53242;51.694;10.006;2023-05-12T05:43:25;99678.97;;;13.07;89.31
66430;BME280;53242;51.694;10.006;2023-05-12T05:45:48;99675.50;;;13.13;88.71
66430;BME280;53242;51.694;10.006;2023-05-12T05:48:11;99681.22;;;13.10;88.78
66430;BME280;53242;51.694;10.006;2023-05-12T05:50:33;99683.25;;;13.08;89.31
66430;BME280;53242;51.694;10.006;2023-05-12T05:52:56;99682.66;;;12.99;89.46
66430;BME280;53242;51.694;10.006;2023-05-12T05:55:19;99686.75;;;12.82;90.93
66430;BME280;53242;51.694;10.006;2023-05-12T05:57:42;99691.81;;;12.97;90.54
66430;BME280;53242;51.694;10.006;2023-05-12T06:00:05;99694.25;;;13.25;89.23
66430;BME280;53242;51.694;10.006;2023-05-12T06:02:35;99691.16;;;13.42;88.30
66430;BME280;53242;51.694;10.006;2023-05-12T06:04:58;99693.41;;;13.45;88.14
66430;BME280;53242;51.694;10.006;2023-05-12T06:07:21;99688.97;;;13.25;88.34
66430;BME280;53242;51.694;10.006;2023-05-12T06:09:43;99691.56;;;13.59;87.24
66430;BME280;53242;51.694;10.006;2023-05-12T06:12:07;99705.38;;;13.74;87.22
66430;BME280;53242;51.694;10.006;2023-05-12T06:14:29;99702.72;;;13.68;87.37
66430;BME280;53242;51.694;10.006;2023-05-12T06:16:51;99699.81;;;13.82;87.08
66430;BME280;53242;51.694;10.006;2023-05-12T06:19:14;99705.09;;;13.89;86.95
66430;BME280;53242;51.694;10.006;2023-05-12T06:21:37;99705.19;;;13.62;87.11
66430;BME280;53242;51.694;10.006;2023-05-12T06:23:59;99708.56;;;13.83;86.11
66430;BME280;53242;51.694;10.006;2023-05-12T06:26:22;99698.94;;;13.95;85.75
66430;BME280;53242;51.694;10.006;2023-05-12T06:28:44;99701.72;;;14.07;85.41
66430;BME280;53242;51.694;10.006;2023-05-12T06:31:07;99707.00;;;14.14;85.13
66430;BME280;53242;51.694;10.006;2023-05-12T06:33:32;99709.47;;;14.09;85.80
66430;BME280;53242;51.694;10.006;2023-05-12T06:35:54;99714.38;;;14.12;86.10
66430;BME280;53242;51.694;10.006;2023-05-12T06:38:17;99710.00;;;14.31;85.31
66430;BME280;53242;51.694;10.006;2023-05-12T06:40:40;99705.22;;;14.40;84.92
66430;BME280;53242;51.694;10.006;2023-05-12T06:43:02;99709.56;;;14.34;84.94
66430;BME280;53242;51.694;10.006;2023-05-12T06:45:25;99712.09;;;14.54;83.83
66430;BME280;53242;51.694;10.006;2023-05-12T06:47:47;99702.94;;;14.43;83.77
66430;BME280;53242;51.694;10.006;2023-05-12T06:50:10;99706.28;;;14.32;84.87
66430;BME280;53242;51.694;10.006;2023-05-12T06:52:33;99703.25;;;14.67;83.86
66430;BME280;53242;51.694;10.006;2023-05-12T06:54:55;99713.66;;;14.30;85.13
66430;BME280;53242;51.694;10.006;2023-05-12T06:57:17;99699.00;;;14.53;84.16
66430;BME280;53242;51.694;10.006;2023-05-12T06:59:40;99702.03;;;14.31;84.81
66430;BME280;53242;51.694;10.006;2023-05-12T07:02:02;99701.16;;;14.37;84.69
66430;BME280;53242;51.694;10.006;2023-05-12T07:04:25;99704.97;;;14.16;84.75
66430;BME280;53242;51.694;10.006;2023-05-12T07:06:48;99702.69;;;14.84;82.85
66430;BME280;53242;51.694;10.006;2023-05-12T07:09:10;99701.31;;;14.74;83.24
66430;BME280;53242;51.694;10.006;2023-05-12T07:11:32;99705.78;;;14.80;83.47
66430;BME280;53242;51.694;10.006;2023-05-12T07:13:55;99706.72;;;14.93;83.04
66430;BME280;53242;51.694;10.006;2023-05-12T07:16:18;99703.28;;;15.11;82.44
66430;BME280;53242;51.694;10.006;2023-05-12T07:18:42;99709.09;;;15.20;82.69
66430;BME280;53242;51.694;10.006;2023-05-12T07:21:04;99714.47;;;15.38;82.11
66430;BME280;53242;51.694;10.006;2023-05-12T07:23:27;99708.06;;;15.21;82.95
66430;BME280;53242;51.694;10.006;2023-05-12T07:25:49;99711.88;;;15.32;81.51
66430;BME280;53242;51.694;10.006;2023-05-12T07:28:11;99711.66;;;15.52;80.74
66430;BME280;53242;51.694;10.006;2023-05-12T07:30:34;99706.72;;;15.37;81.71
66430;BME280;53242;51.694;10.006;2023-05-12T07:32:57;99707.28;;;15.39;82.65
66430;BME280;53242;51.694;10.006;2023-05-12T07:35:20;99707.94;;;15.71;81.38
66430;BME280;53242;51.694;10.006;2023-05-12T07:37:42;99706.47;;;15.75;80.33
66430;BME280;53242;51.694;10.006;2023-05-12T07:40:05;99704.00;;;16.11;79.69
66430;BME280;53242;51.694;10.006;2023-05-12T07:42:28;99704.00;;;16.11;79.64
66430;BME280;53242;51.694;10.006;2023-05-12T07:44:51;99705.09;;;16.22;79.42
66430;BME280;53242;51.694;10.006;2023-05-12T07:47:13;99695.59;;;16.26;79.07
66430;BME280;53242;51.694;10.006;2023-05-12T07:49:36;99701.59;;;16.21;79.93
66430;BME280;53242;51.694;10.006;2023-05-12T07:51:58;99700.94;;;16.26;79.71
66430;BME280;53242;51.694;10.006;2023-05-12T07:54:21;99703.94;;;16.18;80.18
66430;BME280;53242;51.694;10.006;2023-05-12T07:56:43;99698.19;;;16.44;79.42
66430;BME280;53242;51.694;10.006;2023-05-12T07:59:06;99694.75;;;16.56;78.10
66430;BME280;53242;51.694;10.006;2023-05-12T08:01:29;99697.88;;;16.53;78.73
66430;BME280;53242;51.694;10.006;2023-05-12T08:03:52;99705.78;;;16.29;79.44
66430;BME280;53242;51.694;10.006;2023-05-12T08:06:14;99699.25;;;16.43;78.99
66430;BME280;53242;51.694;10.006;2023-05-12T08:08:37;99697.44;;;16.68;77.87
66430;BME280;53242;51.694;10.006;2023-05-12T08:10:59;99687.00;;;16.78;77.31
66430;BME280;53242;51.694;10.006;2023-05-12T08:13:21;99704.53;;;16.86;77.31
66430;BME280;53242;51.694;10.006;2023-05-12T08:15:44;99693.84;;;16.86;77.76
66430;BME280;53242;51.694;10.006;2023-05-12T08:18:08;99694.31;;;16.83;77.90
66430;BME280;53242;51.694;10.006;2023-05-12T08:20:31;99693.78;;;17.04;77.35
66430;BME280;53242;51.694;10.006;2023-05-12T08:22:53;99695.00;;;16.66;78.85
66430;BME280;53242;51.694;10.006;2023-05-12T08:25:16;99694.59;;;16.93;78.76
66430;BME280;53242;51.694;10.006;2023-05-12T08:27:38;99696.53;;;16.86;78.24
66430;BME280;53242;51.694;10.006;2023-05-12T08:30:00;99695.25;;;16.88;77.67
66430;BME280;53242;51.694;10.006;2023-05-12T08:32:23;99683.00;;;17.11;77.43
66430;BME280;53242;51.694;10.006;2023-05-12T08:34:45;99691.53;;;17.49;76.31
66430;BME280;53242;51.694;10.006;2023-05-12T08:37:08;99694.22;;;17.37;76.50
66430;BME280;53242;51.694;10.006;2023-05-12T08:39:30;99680.00;;;17.72;74.57
66430;BME280;53242;51.694;10.006;2023-05-12T08:42:17;99679.63;;;17.80;75.04
66430;BME280;53242;51.694;10.006;2023-05-12T08:44:46;99683.19;;;18.27;73.37
66430;BME280;53242;51.694;10.006;2023-05-12T08:47:10;99687.13;;;18.24;72.88
66430;BME280;53242;51.694;10.006;2023-05-12T08:49:34;99683.19;;;18.27;71.20
66430;BME280;53242;51.694;10.006;2023-05-12T08:51:58;99687.25;;;18.17;70.45
66430;BME280;53242;51.694;10.006;2023-05-12T08:54:21;99689.91;;;18.29;71.06
66430;BME280;53242;51.694;10.006;2023-05-12T08:56:44;99690.59;;;18.24;70.51
66430;BME280;53242;51.694;10.006;2023-05-12T08:59:08;99689.34;;;18.44;70.39
66430;BME280;53242;51.694;10.006;2023-05-12T09:01:36;99686.09;;;18.76;70.21
66430;BME280;53242;51.694;10.006;2023-05-12T09:03:59;99683.44;;;18.76;69.52
66430;BME280;53242;51.694;10.006;2023-05-12T09:06:21;99689.00;;;19.09;68.83
66430;BME280;53242;51.694;10.006;2023-05-12T09:08:44;99688.75;;;19.27;68.52
66430;BME280;53242;51.694;10.006;2023-05-12T09:11:09;99697.78;;;19.43;67.62
66430;BME280;53242;51.694;10.006;2023-05-12T09:13:49;99694.56;;;19.41;66.43
66430;BME280;53242;51.694;10.006;2023-05-12T09:16:14;99687.66;;;19.45;66.31
66430;BME280;53242;51.694;10.006;2023-05-12T09:18:59;99689.00;;;19.09;66.27
66430;BME280;53242;51.694;10.006;2023-05-12T09:21:21;99695.66;;;19.23;66.96
66430;BME280;53242;51.694;10.006;2023-05-12T09:26:22;99690.06;;;19.47;67.57
66430;BME280;53242;51.694;10.006;2023-05-12T09:28:45;99695.53;;;19.79;65.52
66430;BME280;53242;51.694;10.006;2023-05-12T09:31:14;99697.28;;;19.68;66.16
66430;BME280;53242;51.694;10.006;2023-05-12T09:33:37;99694.41;;;19.75;66.53
66430;BME280;53242;51.694;10.006;2023-05-12T09:35:59;99687.63;;;19.67;68.13
66430;BME280;53242;51.694;10.006;2023-05-12T09:38:22;99695.09;;;19.82;67.54
66430;BME280;53242;51.694;10.006;2023-05-12T09:40:44;99694.16;;;19.99;65.73
66430;BME280;53242;51.694;10.006;2023-05-12T09:43:07;99697.97;;;20.03;65.46
66430;BME280;53242;51.694;10.006;2023-05-12T09:45:32;99698.78;;;20.03;65.65
66430;BME280;53242;51.694;10.006;2023-05-12T09:47:56;99689.97;;;20.35;64.92
66430;BME280;53242;51.694;10.006;2023-05-12T09:50:18;99690.69;;;20.58;64.82
66430;BME280;53242;51.694;10.006;2023-05-12T09:52:41;99681.97;;;20.41;64.67
66430;BME280;53242;51.694;10.006;2023-05-12T09:55:12;99683.88;;;20.73;63.31
66430;BME280;53242;51.694;10.006;2023-05-12T09:57:38;99682.72;;;21.01;59.79
66430;BME280;53242;51.694;10.006;2023-05-12T10:00:02;99674.72;;;21.06;59.97
66430;BME280;53242;51.694;10.006;2023-05-12T10:02:27;99672.34;;;21.15;57.76
66430;BME280;53242;51.694;10.006;2023-05-12T10:04:53;99673.78;;;20.90;57.75
66430;BME280;53242;51.694;10.006;2023-05-12T10:07:20;99673.38;;;20.71;59.28
66430;BME280;53242;51.694;10.006;2023-05-12T10:09:44;99667.44;;;21.01;57.59
66430;BME280;53242;51.694;10.006;2023-05-12T10:12:08;99677.34;;;21.54;59.50
66430;BME280;53242;51.694;10.006;2023-05-12T10:14:31;99667.38;;;20.91;55.79
66430;BME280;53242;51.694;10.006;2023-05-12T10:16:54;99663.69;;;21.02;51.59
66430;BME280;53242;51.694;10.006;2023-05-12T10:19:18;99671.97;;;21.49;50.30
66430;BME280;53242;51.694;10.006;2023-05-12T10:21:42;99673.59;;;21.50;52.61
66430;BME280;53242;51.694;10.006;2023-05-12T10:24:05;99666.72;;;21.75;50.36
66430;BME280;53242;51.694;10.006;2023-05-12T10:26:30;99671.56;;;21.83;49.54
66430;BME280;53242;51.694;10.006;2023-05-12T10:28:53;99666.41;;;21.71;50.19
66430;BME280;53242;51.694;10.006;2023-05-12T10:31:16;99672.56;;;21.56;49.73
66430;BME280;53242;51.694;10.006;2023-05-12T10:33:38;99672.06;;;21.75;49.12
66430;BME280;53242;51.694;10.006;2023-05-12T10:36:01;99673.44;;;21.77;48.37
66430;BME280;53242;51.694;10.006;2023-05-12T10:38:23;99669.91;;;21.66;48.42
66430;BME280;53242;51.694;10.006;2023-05-12T10:41:00;99669.84;;;21.51;43.83
66430;BME280;53242;51.694;10.006;2023-05-12T10:43:24;99672.44;;;21.35;45.78
66430;BME280;53242;51.694;10.006;2023-05-12T10:45:46;99671.50;;;21.09;46.72
66430;BME280;53242;51.694;10.006;2023-05-12T10:48:26;99666.34;;;20.97;44.40
66430;BME280;53242;51.694;10.006;2023-05-12T10:50:52;99679.69;;;20.54;41.41
66430;BME280;53242;51.694;10.006;2023-05-12T10:53:14;99673.81;;;20.58;43.63
66430;BME280;53242;51.694;10.006;2023-05-12T10:55:42;99672.84;;;20.36;42.25
66430;BME280;53242;51.694;10.006;2023-05-12T10:58:09;99679.66;;;20.22;41.28
66430;BME280;53242;51.694;10.006;2023-05-12T11:00:42;99680.56;;;20.33;38.61
66430;BME280;53242;51.694;10.006;2023-05-12T11:03:10;99683.81;;;20.08;38.62
66430;BME280;53242;51.694;10.006;2023-05-12T11:05:33;99677.25;;;20.20;41.12
66430;BME280;53242;51.694;10.006;2023-05-12T11:07:57;99685.09;;;20.32;40.32
66430;BME280;53242;51.694;10.006;2023-05-12T11:10:20;99677.59;;;20.29;41.31
66430;BME280;53242;51.694;10.006;2023-05-12T11:12:42;99684.13;;;20.11;41.40
66430;BME280;53242;51.694;10.006;2023-05-12T11:15:05;99678.25;;;20.14;40.22
66430;BME280;53242;51.694;10.006;2023-05-12T11:17:28;99676.28;;;20.32;42.06
66430;BME280;53242;51.694;10.006;2023-05-12T11:19:51;99679.75;;;20.32;41.84
66430;BME280;53242;51.694;10.006;2023-05-12T11:22:19;99677.50;;;20.51;41.20
66430;BME280;53242;51.694;10.006;2023-05-12T11:24:42;99685.00;;;20.49;41.48
66430;BME280;53242;51.694;10.006;2023-05-12T11:27:06;99682.69;;;20.31;42.33
66430;BME280;53242;51.694;10.006;2023-05-12T11:29:29;99678.16;;;20.31;40.55
66430;BME280;53242;51.694;10.006;2023-05-12T11:31:52;99680.94;;;20.42;41.64
66430;BME280;53242;51.694;10.006;2023-05-12T11:34:14;99679.88;;;20.48;40.43
66430;BME280;53242;51.694;10.006;2023-05-12T11:36:38;99682.06;;;20.51;40.51
66430;BME280;53242;51.694;10.006;2023-05-12T11:39:01;99680.72;;;20.48;40.62
66430;BME280;53242;51.694;10.006;2023-05-12T11:41:24;99682.09;;;20.56;40.03
66430;BME280;53242;51.694;10.006;2023-05-12T11:43:47;99679.78;;;20.37;39.56
66430;BME280;53242;51.694;10.006;2023-05-12T11:46:09;99683.81;;;20.67;39.64
66430;BME280;53242;51.694;10.006;2023-05-12T11:48:33;99682.66;;;20.91;39.77
66430;BME280;53242;51.694;10.006;2023-05-12T11:50:55;99689.56;;;20.81;39.30
66430;BME280;53242;51.694;10.006;2023-05-12T11:53:18;99690.22;;;20.99;38.79
66430;BME280;53242;51.694;10.006;2023-05-12T11:58:18;99688.38;;;21.05;38.06
66430;BME280;53242;51.694;10.006;2023-05-12T12:00:42;99685.94;;;21.03;39.56
66430;BME280;53242;51.694;10.006;2023-05-12T12:03:12;99682.94;;;20.94;38.50
66430;BME280;53242;51.694;10.006;2023-05-12T12:05:35;99687.13;;;20.80;38.54
66430;BME280;53242;51.694;10.006;2023-05-12T12:08:05;99689.56;;;20.81;37.56
66430;BME280;53242;51.694;10.006;2023-05-12T12:10:28;99698.53;;;20.65;39.14
66430;BME280;53242;51.694;10.006;2023-05-12T12:12:50;99695.44;;;20.78;38.14
66430;BME280;53242;51.694;10.006;2023-05-12T12:15:12;99694.78;;;21.51;38.59
66430;BME280;53242;51.694;10.006;2023-05-12T12:17:35;99689.22;;;21.58;38.40
66430;BME280;53242;51.694;10.006;2023-05-12T12:19:57;99697.47;;;21.51;39.42
66430;BME280;53242;51.694;10.006;2023-05-12T12:22:20;99697.69;;;21.34;39.28
66430;BME280;53242;51.694;10.006;2023-05-12T12:24:42;99700.31;;;21.24;37.73
66430;BME280;53242;51.694;10.006;2023-05-12T12:27:05;99703.69;;;21.09;37.21
66430;BME280;53242;51.694;10.006;2023-05-12T12:29:27;99698.53;;;20.97;36.89
66430;BME280;53242;51.694;10.006;2023-05-12T12:31:50;99707.06;;;20.94;37.52
66430;BME280;53242;51.694;10.006;2023-05-12T12:34:12;99702.59;;;21.05;37.43